createdAt,value
2023-05-15T00:00:23.166Z,87.15
2023-05-15T00:05:01.337Z,87.28
2023-05-15T00:09:19.082Z,87.61
2023-05-15T00:13:38.663Z,87.86
2023-05-15T00:17:56.406Z,87.87
2023-05-15T00:22:13.932Z,88.02
2023-05-15T00:26:33.119Z,87.97
2023-05-15T00:30:52.079Z,88.08
2023-05-15T00:35:09.897Z,88.17
2023-05-15T00:39:27.505Z,88.35
2023-05-15T00:43:45.401Z,88.19
2023-05-15T00:48:03.810Z,88.31
2023-05-15T00:52:22.385Z,88.40
2023-05-15T00:56:40.493Z,88.33
2023-05-15T01:00:58.309Z,88.43
2023-05-15T01:05:15.984Z,88.57
2023-05-15T01:09:36.691Z,88.64
2023-05-15T01:13:55.410Z,88.73
2023-05-15T01:18:13.147Z,88.83
2023-05-15T01:22:47.183Z,88.88
2023-05-15T01:27:24.945Z,89.00
2023-05-15T01:31:48.743Z,89.22
2023-05-15T01:36:18.457Z,89.24
2023-05-15T01:40:36.480Z,89.34
2023-05-15T01:44:55.752Z,89.41
2023-05-15T01:49:16.369Z,89.40
2023-05-15T01:53:35.457Z,89.26
2023-05-15T01:57:53.834Z,89.18
2023-05-15T02:02:12.156Z,88.99
2023-05-15T02:06:30.896Z,89.02
2023-05-15T02:10:49.688Z,89.21
2023-05-15T02:15:10.819Z,89.30
2023-05-15T02:19:28.444Z,89.29
2023-05-15T02:23:46.806Z,89.31
2023-05-15T02:28:07.946Z,89.30
2023-05-15T02:33:05.180Z,89.48
2023-05-15T02:37:30.481Z,89.50
2023-05-15T02:41:48.706Z,89.58
2023-05-15T02:46:07.825Z,89.48
2023-05-15T02:50:25.792Z,89.57
2023-05-15T02:54:43.670Z,89.69
2023-05-15T02:59:02.739Z,89.86
2023-05-15T03:03:20.245Z,90.02
2023-05-15T03:07:37.936Z,90.00
2023-05-15T03:11:55.486Z,89.96
2023-05-15T03:16:13.084Z,89.96
2023-05-15T03:20:30.594Z,90.07
2023-05-15T03:24:49.226Z,89.98
2023-05-15T03:29:06.734Z,89.89
2023-05-15T03:33:24.594Z,90.04
2023-05-15T03:37:42.476Z,90.12
2023-05-15T03:42:00.117Z,90.19
2023-05-15T03:46:17.673Z,90.09
2023-05-15T03:50:35.287Z,90.15
2023-05-15T03:54:52.948Z,90.27
2023-05-15T03:59:10.634Z,90.26
2023-05-15T04:03:28.156Z,90.28
2023-05-15T04:07:46.192Z,90.25
2023-05-15T04:12:03.918Z,90.13
2023-05-15T04:16:21.753Z,90.00
2023-05-15T04:20:39.329Z,89.97
2023-05-15T04:24:57.193Z,89.77
2023-05-15T04:29:14.690Z,89.70
2023-05-15T04:33:32.668Z,89.63
2023-05-15T04:37:50.161Z,89.58
2023-05-15T04:42:08.098Z,89.31
2023-05-15T04:46:25.674Z,89.32
2023-05-15T04:50:43.370Z,89.06
2023-05-15T04:55:00.996Z,88.71
2023-05-15T04:59:18.816Z,87.52
2023-05-15T05:03:36.461Z,86.09
2023-05-15T05:07:54.485Z,84.98
2023-05-15T05:12:12.217Z,84.65
2023-05-15T05:16:30.179Z,84.85
2023-05-15T05:20:47.955Z,85.29
2023-05-15T05:25:07.544Z,85.46
2023-05-15T05:29:25.853Z,85.87
2023-05-15T05:33:43.653Z,86.15
2023-05-15T05:38:01.290Z,85.98
2023-05-15T05:42:18.928Z,85.20
2023-05-15T05:46:36.585Z,84.90
2023-05-15T05:50:55.255Z,84.54
2023-05-15T05:55:12.886Z,84.30
2023-05-15T05:59:30.976Z,84.41
2023-05-15T06:03:48.945Z,84.71
2023-05-15T06:08:07.110Z,85.40
2023-05-15T06:12:24.562Z,85.12
2023-05-15T06:16:42.523Z,84.64
2023-05-15T06:21:18.107Z,83.56
2023-05-15T06:25:36.555Z,81.88
2023-05-15T06:29:54.074Z,81.78
2023-05-15T06:34:12.523Z,81.10
2023-05-15T06:38:30.035Z,79.43
2023-05-15T06:42:47.634Z,78.88
2023-05-15T06:47:06.091Z,78.88
2023-05-15T06:51:23.917Z,77.52
2023-05-15T06:55:41.484Z,74.44
2023-05-15T06:59:59.191Z,74.59
2023-05-15T07:04:16.891Z,75.68
2023-05-15T07:08:34.737Z,73.09
2023-05-15T07:12:52.324Z,72.93
2023-05-15T07:17:10.123Z,73.22
2023-05-15T07:21:27.666Z,72.10
2023-05-15T07:25:46.086Z,72.14
2023-05-15T07:30:05.153Z,69.35
2023-05-15T07:34:23.987Z,72.35
2023-05-15T07:38:41.547Z,74.59
2023-05-15T07:42:59.165Z,74.51
2023-05-15T07:47:17.708Z,75.69
2023-05-15T07:51:36.154Z,76.08
2023-05-15T07:55:53.859Z,74.60
2023-05-15T08:00:13.134Z,72.51
2023-05-15T08:04:30.822Z,71.83
2023-05-15T08:08:48.705Z,72.41
2023-05-15T08:13:06.279Z,71.87
2023-05-15T08:17:25.555Z,72.46
2023-05-15T08:21:43.175Z,74.05
2023-05-15T08:26:01.724Z,75.99
2023-05-15T08:30:19.216Z,77.18
2023-05-15T08:34:37.346Z,78.37
2023-05-15T08:38:54.827Z,77.92
2023-05-15T08:43:16.010Z,78.24
2023-05-15T08:47:38.791Z,79.46
2023-05-15T08:51:56.892Z,80.72
2023-05-15T08:56:14.867Z,81.79
2023-05-15T09:00:33.293Z,82.89
2023-05-15T09:04:51.013Z,82.83
2023-05-15T09:09:09.843Z,82.51
2023-05-15T09:13:27.767Z,81.61
2023-05-15T09:17:46.270Z,82.91
2023-05-15T09:22:24.496Z,82.97
2023-05-15T09:26:43.245Z,81.60
2023-05-15T09:31:04.064Z,81.66
2023-05-15T09:35:37.105Z,79.35
2023-05-15T09:39:54.841Z,79.27
2023-05-15T09:44:21.897Z,78.61
2023-05-15T09:48:40.223Z,77.73
2023-05-15T09:53:00.366Z,76.55
2023-05-15T09:57:23.824Z,76.19
2023-05-15T10:01:45.267Z,76.49
2023-05-15T10:06:05.084Z,75.00
2023-05-15T10:10:23.465Z,75.56
2023-05-15T10:14:41.609Z,75.31
2023-05-15T10:18:59.289Z,74.53
2023-05-15T10:23:19.076Z,73.90
2023-05-15T10:27:39.020Z,71.95
2023-05-15T10:31:57.657Z,69.47
2023-05-15T10:36:17.497Z,71.55
2023-05-15T10:40:40.394Z,71.60
2023-05-15T10:45:01.454Z,71.25
2023-05-15T10:49:19.025Z,74.19
2023-05-15T10:53:36.850Z,74.74
2023-05-15T10:57:55.154Z,76.50
2023-05-15T11:02:26.751Z,77.20
2023-05-15T11:06:50.194Z,79.71
2023-05-15T11:11:08.155Z,81.82
2023-05-15T11:15:25.656Z,80.78
2023-05-15T11:20:03.805Z,81.85
2023-05-15T11:24:22.713Z,81.73
2023-05-15T11:28:47.466Z,79.48
2023-05-15T11:33:11.629Z,76.02
2023-05-15T11:37:30.017Z,78.49
2023-05-15T11:41:48.147Z,66.21
2023-05-15T11:46:10.886Z,67.41
2023-05-15T11:50:29.789Z,70.51
2023-05-15T11:54:47.984Z,59.03
2023-05-15T11:59:05.841Z,62.59
2023-05-15T12:03:32.951Z,69.15
2023-05-15T12:07:50.640Z,71.52
2023-05-15T12:12:14.657Z,71.71
2023-05-15T12:16:33.233Z,70.09
2023-05-15T12:20:55.015Z,66.80
2023-05-15T12:25:15.332Z,62.37
2023-05-15T12:29:33.169Z,56.75
2023-05-15T12:33:53.347Z,45.06
2023-05-15T12:38:16.773Z,36.93
2023-05-15T12:42:40.306Z,48.62
2023-05-15T12:46:58.772Z,59.12
2023-05-15T12:51:18.167Z,66.78
2023-05-15T12:55:40.255Z,71.30
2023-05-15T12:59:57.885Z,72.29
2023-05-15T13:04:16.919Z,73.32
2023-05-15T13:08:41.671Z,73.62
2023-05-15T13:13:00.008Z,75.77
2023-05-15T13:17:17.558Z,79.98
2023-05-15T13:21:35.448Z,78.41
2023-05-15T13:25:52.852Z,62.09
2023-05-15T13:30:11.576Z,62.19
2023-05-15T13:34:29.036Z,42.69
2023-05-15T13:38:47.501Z,51.81
2023-05-15T13:43:06.964Z,64.74
2023-05-15T13:47:24.640Z,67.46
2023-05-15T13:51:42.266Z,67.84
2023-05-15T13:55:59.863Z,67.54
2023-05-15T14:00:17.705Z,62.99
2023-05-15T14:04:35.485Z,53.92
2023-05-15T14:08:53.036Z,59.95
2023-05-15T14:13:11.880Z,61.40
2023-05-15T14:17:29.503Z,65.32
2023-05-15T14:21:47.283Z,69.61
2023-05-15T14:26:04.873Z,70.07
2023-05-15T14:30:23.456Z,61.82
2023-05-15T14:34:41.722Z,68.04
2023-05-15T14:39:00.607Z,68.57
2023-05-15T14:43:18.483Z,67.79
2023-05-15T14:47:36.014Z,59.72
2023-05-15T14:51:53.662Z,34.55
2023-05-15T14:56:11.170Z,38.12
2023-05-15T15:00:28.963Z,52.14
2023-05-15T15:04:46.391Z,57.04
2023-05-15T15:09:04.688Z,57.95
2023-05-15T15:13:22.279Z,63.03
2023-05-15T15:17:39.953Z,64.85
2023-05-15T15:21:57.501Z,68.22
2023-05-15T15:26:16.024Z,68.74
2023-05-15T15:30:33.592Z,70.10
2023-05-15T15:34:52.347Z,63.27
2023-05-15T15:39:11.668Z,57.65
2023-05-15T15:43:29.364Z,32.30
2023-05-15T15:47:47.016Z,29.80
2023-05-15T15:52:08.622Z,39.25
2023-05-15T15:56:28.850Z,54.97
2023-05-15T16:00:49.724Z,63.34
2023-05-15T16:05:08.081Z,65.43
2023-05-15T16:09:25.840Z,60.61
2023-05-15T16:13:43.187Z,54.02
2023-05-15T16:18:01.541Z,52.26
2023-05-15T16:22:19.105Z,60.15
2023-05-15T16:26:38.308Z,62.66
2023-05-15T16:30:56.554Z,59.23
2023-05-15T16:35:14.387Z,46.58
2023-05-15T16:39:38.879Z,57.41
2023-05-15T16:43:57.226Z,62.73
2023-05-15T16:48:14.826Z,64.11
2023-05-15T16:52:32.535Z,64.43
2023-05-15T16:56:50.094Z,50.93
2023-05-15T17:01:08.051Z,45.16
2023-05-15T17:05:25.896Z,57.98
2023-05-15T17:09:44.901Z,62.46
2023-05-15T17:14:02.549Z,62.74
2023-05-15T17:18:20.377Z,56.23
2023-05-15T17:22:37.976Z,56.45
2023-05-15T17:26:55.945Z,52.61
2023-05-15T17:31:13.495Z,56.86
2023-05-15T17:35:32.973Z,64.65
2023-05-15T17:39:51.499Z,67.73
2023-05-15T17:44:09.415Z,68.19
2023-05-15T17:48:27.418Z,69.12
2023-05-15T17:52:44.934Z,69.49
2023-05-15T17:57:02.817Z,69.45
2023-05-15T18:01:21.580Z,69.83
2023-05-15T18:05:39.322Z,70.53
2023-05-15T18:09:56.912Z,71.15
2023-05-15T18:14:14.625Z,71.39
2023-05-15T18:18:32.181Z,71.28
2023-05-15T18:22:51.041Z,71.16
2023-05-15T18:27:08.608Z,71.28
2023-05-15T18:31:26.670Z,71.40
2023-05-15T18:35:44.333Z,71.49
2023-05-15T18:40:02.085Z,71.76
2023-05-15T18:44:20.933Z,72.17
2023-05-15T18:48:38.429Z,71.76
2023-05-15T18:52:56.029Z,72.12
2023-05-15T18:57:14.651Z,71.94
2023-05-15T19:01:32.551Z,72.28
2023-05-15T19:05:50.454Z,72.98
2023-05-15T19:10:09.208Z,73.39
2023-05-15T19:14:27.289Z,73.71
2023-05-15T19:18:45.014Z,74.10
2023-05-15T19:23:03.798Z,74.08
2023-05-15T19:27:21.411Z,74.00
2023-05-15T19:31:39.968Z,74.38
2023-05-15T19:35:57.842Z,74.58
2023-05-15T19:40:15.832Z,74.85
2023-05-15T19:44:33.526Z,74.56
2023-05-15T19:48:53.699Z,74.69
2023-05-15T19:53:12.465Z,75.03
2023-05-15T19:57:30.067Z,75.10
2023-05-15T20:01:47.765Z,74.49
2023-05-15T20:06:05.399Z,74.71
2023-05-15T20:10:23.524Z,74.72
2023-05-15T20:14:42.146Z,75.07
2023-05-15T20:19:02.930Z,75.05
2023-05-15T20:23:21.591Z,75.04
2023-05-15T20:27:39.216Z,75.51
2023-05-15T20:31:57.587Z,76.10
2023-05-15T20:36:16.853Z,76.85
2023-05-15T20:40:34.754Z,76.93
2023-05-15T20:44:52.384Z,77.32
2023-05-15T20:49:10.055Z,78.01
2023-05-15T20:53:28.987Z,78.81
2023-05-15T20:57:48.612Z,79.65
2023-05-15T21:02:06.332Z,80.36
2023-05-15T21:06:24.142Z,81.32
2023-05-15T21:10:42.130Z,81.88
2023-05-15T21:14:59.909Z,82.78
2023-05-15T21:19:17.628Z,83.33
2023-05-15T21:23:36.792Z,83.88
2023-05-15T21:27:54.977Z,84.27
2023-05-15T21:32:12.571Z,85.18
2023-05-15T21:36:30.232Z,85.62
2023-05-15T21:40:47.864Z,85.80
2023-05-15T21:45:06.981Z,86.01
2023-05-15T21:49:24.993Z,86.35
2023-05-15T21:53:42.748Z,86.61
2023-05-15T21:58:00.246Z,86.77
2023-05-15T22:02:17.895Z,87.12
2023-05-15T22:06:35.815Z,87.47
2023-05-15T22:10:53.845Z,87.60
2023-05-15T22:15:13.001Z,87.75
2023-05-15T22:19:33.464Z,87.86
2023-05-15T22:23:51.439Z,88.23
2023-05-15T22:28:09.212Z,88.58
2023-05-15T22:32:27.642Z,88.94
2023-05-15T22:36:48.100Z,88.70
2023-05-15T22:41:06.756Z,88.76
2023-05-15T22:45:25.068Z,88.88
2023-05-15T22:49:42.827Z,88.90
2023-05-15T22:54:02.899Z,88.89
2023-05-15T22:58:20.478Z,89.07
2023-05-15T23:02:38.693Z,89.29
2023-05-15T23:06:56.356Z,89.36
2023-05-15T23:11:13.962Z,89.26
2023-05-15T23:15:31.526Z,89.30
2023-05-15T23:19:49.696Z,89.36
2023-05-15T23:24:07.277Z,89.41
2023-05-15T23:28:25.097Z,89.68
2023-05-15T23:32:42.614Z,89.77
2023-05-15T23:37:00.256Z,89.69
2023-05-15T23:41:17.887Z,89.72
2023-05-15T23:45:35.626Z,89.70
2023-05-15T23:49:53.146Z,89.73
2023-05-15T23:54:11.974Z,89.75
2023-05-15T23:58:29.492Z,89.85
